Terminal Aerodrome Forecast
Issued by NWS

Home | Current Version | Previous Version | Text Only | Print | Product List | Glossary On
Versions: 1 2 3 4 5 6 7 8 9 10 11 12 13 14 15 16 17 18 19 20 21 22 23 24 25 26 27 28 29 30 31 32 33 34
000
FTUS45 KCYS 191720
TAFLAR
TAF
KLAR 191720Z 1918/2018 14022G31KT P6SM VCSH SCT020 BKN050
      WS020/21040KT
     FM192200 15014KT 3/4SM -SN BLSN OVC025
     FM200000 11011KT 1SM -SN BR OVC015
     FM200800 02006KT 3SM -SN BR BKN025=

USA.gov is the U.S. government's official web portal to all federal, state and local government web resources and services.